createdAt,value
2019-05-17T00:01:21.005Z,11.27
2019-05-17T00:04:10.447Z,10.77
2019-05-17T00:06:59.822Z,12.90
2019-05-17T00:09:53.466Z,11.90
2019-05-17T00:12:42.844Z,11.07
2019-05-17T00:15:32.340Z,10.97
2019-05-17T00:18:20.975Z,11.13
2019-05-17T00:21:11.360Z,10.30
2019-05-17T00:24:03.675Z,10.90
2019-05-17T00:26:54.205Z,11.37
2019-05-17T00:29:46.396Z,11.50
2019-05-17T00:32:36.892Z,10.10
2019-05-17T00:35:26.945Z,11.37
2019-05-17T00:38:17.875Z,11.10
2019-05-17T00:41:08.600Z,10.87
2019-05-17T00:43:58.618Z,11.70
2019-05-17T00:46:48.073Z,12.37
2019-05-17T00:49:39.682Z,11.50
2019-05-17T00:52:29.191Z,12.70
2019-05-17T00:55:18.971Z,10.60
2019-05-17T00:58:09.366Z,12.20
2019-05-17T01:00:59.183Z,11.17
2019-05-17T01:03:49.224Z,11.27
2019-05-17T01:06:46.888Z,11.47
2019-05-17T01:09:36.607Z,12.30
2019-05-17T01:12:27.318Z,12.93
2019-05-17T01:15:17.422Z,11.83
2019-05-17T01:18:07.498Z,12.10
2019-05-17T01:20:56.908Z,11.90
2019-05-17T01:23:53.609Z,11.00
2019-05-17T01:26:49.322Z,11.23
2019-05-17T01:29:39.023Z,10.30
2019-05-17T01:32:28.956Z,11.10
2019-05-17T01:35:18.430Z,10.93
2019-05-17T01:38:07.938Z,11.43
2019-05-17T01:40:57.105Z,11.30
2019-05-17T01:43:47.406Z,10.83
2019-05-17T01:46:37.463Z,10.10
2019-05-17T01:49:27.690Z,11.30
2019-05-17T01:52:17.538Z,10.00
2019-05-17T01:55:08.291Z,9.97
2019-05-17T01:57:57.322Z,11.47
2019-05-17T02:00:47.517Z,11.03
2019-05-17T02:03:37.647Z,11.20
2019-05-17T02:06:28.430Z,10.10
2019-05-17T02:09:33.891Z,9.77
2019-05-17T02:12:10.315Z,9.83
2019-05-17T02:15:00.471Z,9.03
2019-05-17T02:17:50.487Z,9.37
2019-05-17T02:20:40.543Z,10.10
2019-05-17T02:23:29.652Z,10.70
2019-05-17T02:26:20.154Z,10.93
2019-05-17T02:29:15.163Z,10.13
2019-05-17T02:32:04.438Z,10.73
2019-05-17T02:34:54.039Z,9.80
2019-05-17T02:37:43.551Z,10.47
2019-05-17T02:40:33.953Z,10.10
2019-05-17T02:43:24.152Z,9.33
2019-05-17T02:46:13.780Z,9.80
2019-05-17T02:49:03.712Z,10.63
2019-05-17T02:51:54.840Z,9.30
2019-05-17T02:54:45.156Z,8.60
2019-05-17T02:57:35.151Z,9.83
2019-05-17T03:00:27.354Z,8.90
2019-05-17T03:03:17.441Z,9.77
2019-05-17T03:06:07.363Z,9.43
2019-05-17T03:08:57.015Z,9.13
2019-05-17T03:11:46.913Z,10.00
2019-05-17T03:14:37.154Z,10.30
2019-05-17T03:17:26.771Z,10.23
2019-05-17T03:20:17.072Z,10.30
2019-05-17T03:23:07.843Z,11.37
2019-05-17T03:25:57.966Z,10.30
2019-05-17T03:28:48.342Z,9.70
2019-05-17T03:31:44.828Z,10.13
2019-05-17T03:34:29.078Z,9.87
2019-05-17T03:37:18.809Z,9.63
2019-05-17T03:40:27.370Z,10.80
2019-05-17T03:43:02.528Z,9.13
2019-05-17T03:45:53.375Z,9.43
2019-05-17T03:48:48.705Z,10.60
2019-05-17T03:51:38.017Z,9.53
2019-05-17T03:54:28.683Z,10.60
2019-05-17T03:57:18.264Z,10.90
2019-05-17T04:00:09.376Z,12.17
2019-05-17T04:03:02.682Z,11.03
2019-05-17T04:05:52.971Z,11.87
2019-05-17T04:08:43.119Z,11.30
2019-05-17T04:11:36.341Z,10.87
2019-05-17T04:14:24.795Z,11.33
2019-05-17T04:17:14.445Z,12.80
2019-05-17T04:20:03.907Z,11.90
2019-05-17T04:22:58.912Z,11.30
2019-05-17T04:25:49.152Z,10.87
2019-05-17T04:28:39.205Z,12.20
2019-05-17T04:31:30.544Z,10.93
2019-05-17T04:34:18.950Z,13.20
2019-05-17T04:37:07.650Z,10.00
2019-05-17T04:39:57.231Z,13.87
2019-05-17T04:42:47.383Z,12.07
2019-05-17T04:45:37.230Z,12.10
2019-05-17T04:48:26.493Z,13.20
2019-05-17T04:51:16.351Z,13.37
2019-05-17T04:54:06.168Z,13.00
2019-05-17T04:56:55.125Z,11.90
2019-05-17T04:59:45.338Z,13.27
2019-05-17T05:02:34.460Z,13.23
2019-05-17T05:05:25.063Z,14.90
2019-05-17T05:08:15.068Z,14.93
2019-05-17T05:11:05.895Z,13.00
2019-05-17T05:13:55.799Z,12.87
2019-05-17T05:16:45.859Z,13.00
2019-05-17T05:19:35.127Z,13.67
2019-05-17T05:22:24.160Z,13.23
2019-05-17T05:25:13.999Z,12.50
2019-05-17T05:28:04.130Z,14.00
2019-05-17T05:30:54.690Z,13.17
2019-05-17T05:33:44.570Z,13.43
2019-05-17T05:36:33.554Z,11.73
2019-05-17T05:39:23.385Z,12.57
2019-05-17T05:42:14.239Z,12.30
2019-05-17T05:45:04.623Z,12.70
2019-05-17T05:47:54.219Z,14.63
2019-05-17T05:50:43.948Z,12.90
2019-05-17T05:53:33.242Z,12.17
2019-05-17T05:56:23.328Z,11.23
2019-05-17T05:59:13.438Z,13.03
2019-05-17T06:05:02.023Z,10.60
2019-05-17T06:07:52.254Z,9.60
2019-05-17T06:10:42.900Z,11.00
2019-05-17T06:13:33.264Z,11.30
2019-05-17T06:16:22.820Z,11.50
2019-05-17T06:19:12.125Z,10.43
2019-05-17T06:22:02.765Z,10.93
2019-05-17T06:24:52.494Z,9.53
2019-05-17T06:27:42.672Z,11.33
2019-05-17T06:30:32.523Z,8.80
2019-05-17T06:33:30.501Z,9.27
2019-05-17T06:36:13.848Z,9.87
2019-05-17T06:39:06.223Z,10.07
2019-05-17T06:41:55.979Z,9.83
2019-05-17T06:44:46.139Z,9.03
2019-05-17T06:47:35.685Z,9.77
2019-05-17T06:50:25.897Z,8.80
2019-05-17T06:53:43.594Z,9.33
2019-05-17T06:56:32.516Z,8.40
2019-05-17T06:59:23.059Z,8.13
2019-05-17T07:02:13.242Z,7.90
2019-05-17T07:05:06.210Z,7.97
2019-05-17T07:07:56.382Z,8.10
2019-05-17T07:10:46.211Z,7.20
2019-05-17T07:13:35.767Z,8.93
2019-05-17T07:16:26.123Z,8.77
2019-05-17T07:19:15.298Z,8.50
2019-05-17T07:22:04.973Z,8.07
2019-05-17T07:24:53.949Z,7.70
2019-05-17T07:27:45.970Z,8.13
2019-05-17T07:30:36.128Z,7.60
2019-05-17T07:33:25.594Z,8.43
2019-05-17T07:36:14.557Z,8.07
2019-05-17T07:39:05.269Z,8.17
2019-05-17T07:41:55.446Z,7.33
2019-05-17T07:44:45.582Z,7.20
2019-05-17T07:47:34.734Z,7.40
2019-05-17T07:50:25.559Z,7.47
2019-05-17T07:53:15.515Z,5.97
2019-05-17T07:56:05.540Z,6.63
2019-05-17T07:58:55.131Z,7.50
2019-05-17T08:04:40.629Z,7.50
2019-05-17T08:07:31.830Z,5.70
2019-05-17T08:10:24.084Z,6.37
2019-05-17T08:13:25.604Z,6.70
2019-05-17T08:16:05.025Z,6.20
2019-05-17T08:18:54.499Z,5.50
2019-05-17T08:21:44.079Z,4.93
2019-05-17T08:27:11.910Z,5.43
2019-05-17T08:30:00.651Z,5.10
2019-05-17T08:32:50.490Z,4.90
2019-05-17T08:35:40.533Z,4.90
2019-05-17T08:38:30.759Z,5.17
2019-05-17T08:41:21.327Z,4.30
2019-05-17T08:44:11.491Z,4.90
2019-05-17T08:47:00.650Z,4.90
2019-05-17T08:52:49.496Z,4.33
2019-05-17T08:55:40.909Z,5.20
2019-05-17T08:58:35.899Z,4.80
2019-05-17T09:01:26.250Z,4.50
2019-05-17T09:04:22.034Z,4.87
2019-05-17T09:07:12.228Z,4.10
2019-05-17T09:10:02.256Z,4.97
2019-05-17T09:12:52.014Z,5.53
2019-05-17T09:15:42.775Z,4.93
2019-05-17T09:18:33.103Z,4.90
2019-05-17T09:21:22.550Z,4.00
2019-05-17T09:24:12.732Z,5.23
2019-05-17T09:27:02.626Z,4.80
2019-05-17T09:29:53.390Z,4.43
2019-05-17T09:32:43.153Z,4.87
2019-05-17T09:35:32.406Z,4.40
2019-05-17T09:38:21.631Z,5.77
2019-05-17T09:41:12.579Z,4.93
2019-05-17T09:44:12.170Z,4.63
2019-05-17T09:46:53.038Z,4.20
2019-05-17T09:49:43.271Z,4.40
2019-05-17T09:52:33.830Z,4.40
2019-05-17T09:55:23.400Z,4.33
2019-05-17T09:58:12.595Z,4.50
2019-05-17T10:01:02.805Z,4.90
2019-05-17T10:03:53.467Z,5.10
2019-05-17T10:06:44.610Z,3.67
2019-05-17T10:09:42.239Z,4.63
2019-05-17T10:12:32.690Z,4.07
2019-05-17T10:15:22.110Z,4.60
2019-05-17T10:18:11.792Z,3.67
2019-05-17T10:21:01.744Z,4.20
2019-05-17T10:23:52.231Z,3.90
2019-05-17T10:26:41.508Z,3.60
2019-05-17T10:29:31.973Z,3.90
2019-05-17T10:32:21.875Z,4.00
2019-05-17T10:35:11.522Z,3.83
2019-05-17T10:38:00.559Z,3.73
2019-05-17T10:40:50.282Z,3.80
2019-05-17T10:43:39.314Z,3.90
2019-05-17T10:46:29.989Z,3.63
2019-05-17T10:49:20.423Z,3.90
2019-05-17T10:52:11.143Z,4.50
2019-05-17T10:55:01.638Z,5.00
2019-05-17T10:57:51.811Z,3.30
2019-05-17T11:00:41.781Z,3.87
2019-05-17T11:03:32.193Z,4.30
2019-05-17T11:06:30.137Z,3.83
2019-05-17T11:09:20.606Z,3.70
2019-05-17T11:12:10.163Z,4.20
2019-05-17T11:15:10.211Z,3.43
2019-05-17T11:17:51.340Z,4.00
2019-05-17T11:20:41.042Z,3.67
2019-05-17T11:23:30.471Z,4.23
2019-05-17T11:26:21.090Z,3.60
2019-05-17T11:29:16.287Z,3.70
2019-05-17T11:32:05.566Z,3.40
2019-05-17T11:34:54.739Z,3.03
2019-05-17T11:37:43.607Z,3.50
2019-05-17T11:40:33.359Z,2.87
2019-05-17T11:43:23.064Z,3.20
2019-05-17T11:46:13.023Z,3.70
2019-05-17T11:49:02.710Z,3.27
2019-05-17T11:51:52.675Z,4.03
2019-05-17T11:54:42.595Z,3.60
2019-05-17T11:57:33.135Z,3.60
2019-05-17T12:00:30.443Z,3.53
2019-05-17T12:03:20.743Z,2.67
2019-05-17T12:06:10.726Z,2.90
2019-05-17T12:09:00.223Z,3.00
2019-05-17T12:11:51.950Z,3.13
2019-05-17T12:14:41.259Z,3.23
2019-05-17T12:17:31.290Z,3.17
2019-05-17T12:20:20.808Z,4.67
2019-05-17T12:23:17.663Z,3.50
2019-05-17T12:26:08.286Z,2.33
2019-05-17T12:28:59.079Z,3.40
2019-05-17T12:31:48.870Z,3.23
2019-05-17T12:34:39.979Z,3.20
2019-05-17T12:37:28.856Z,3.10
2019-05-17T12:43:14.806Z,3.80
2019-05-17T12:46:04.075Z,2.77
2019-05-17T12:51:48.963Z,2.53
2019-05-17T12:54:38.370Z,2.70
2019-05-17T12:57:28.306Z,2.77
2019-05-17T13:03:22.422Z,2.57
2019-05-17T13:06:12.638Z,2.10
2019-05-17T13:09:05.139Z,2.90
2019-05-17T13:11:55.464Z,2.17
2019-05-17T13:14:44.314Z,2.10
2019-05-17T13:17:33.639Z,2.00
2019-05-17T13:20:23.099Z,2.10
2019-05-17T13:23:12.324Z,2.10
2019-05-17T13:26:03.481Z,2.43
2019-05-17T13:28:54.239Z,2.50
2019-05-17T13:31:44.251Z,2.47
2019-05-17T13:34:35.184Z,2.00
2019-05-17T13:37:24.772Z,2.30
2019-05-17T13:40:14.128Z,2.40
2019-05-17T13:43:05.433Z,2.87
2019-05-17T13:45:54.618Z,2.37
2019-05-17T13:48:44.453Z,2.70
2019-05-17T13:51:33.486Z,2.50
2019-05-17T13:54:23.512Z,2.67
2019-05-17T13:57:13.374Z,2.63
2019-05-17T14:00:03.233Z,2.90
2019-05-17T14:02:54.175Z,3.00
2019-05-17T14:05:44.141Z,2.60
2019-05-17T14:08:33.942Z,2.50
2019-05-17T14:11:23.782Z,2.70
2019-05-17T14:14:13.022Z,2.90
2019-05-17T14:17:02.338Z,2.63
2019-05-17T14:19:51.839Z,2.23
2019-05-17T14:22:40.618Z,3.43
2019-05-17T14:25:31.110Z,2.40
2019-05-17T14:28:21.183Z,2.40
2019-05-17T14:31:11.082Z,2.20
2019-05-17T14:34:00.998Z,1.83
2019-05-17T14:36:50.541Z,2.40
2019-05-17T14:39:40.704Z,2.57
2019-05-17T14:42:32.248Z,2.60
2019-05-17T14:45:23.314Z,2.47
2019-05-17T14:48:12.863Z,2.50
2019-05-17T14:51:01.880Z,2.10
2019-05-17T14:53:51.080Z,2.23
2019-05-17T14:56:41.166Z,2.60
2019-05-17T14:59:30.080Z,2.10
2019-05-17T15:05:15.589Z,2.20
2019-05-17T15:08:05.545Z,2.40
2019-05-17T15:10:55.294Z,2.00
2019-05-17T15:13:45.117Z,3.20
2019-05-17T15:16:34.331Z,4.40
2019-05-17T15:19:23.561Z,3.13
2019-05-17T15:22:12.938Z,2.50
2019-05-17T15:25:02.954Z,2.47
2019-05-17T15:27:53.071Z,3.00
2019-05-17T15:30:42.970Z,2.73
2019-05-17T15:33:33.029Z,2.60
2019-05-17T15:36:22.905Z,2.40
2019-05-17T15:39:11.736Z,2.23
2019-05-17T15:42:02.722Z,2.60
2019-05-17T15:44:53.788Z,3.10
2019-05-17T15:47:43.498Z,2.60
2019-05-17T15:50:33.372Z,2.60
2019-05-17T15:53:22.392Z,2.73
2019-05-17T15:56:11.036Z,3.20
2019-05-17T15:59:00.286Z,3.67
2019-05-17T16:01:49.718Z,3.17
2019-05-17T16:04:40.578Z,2.97
2019-05-17T16:07:30.985Z,2.73
2019-05-17T16:10:20.016Z,2.70
2019-05-17T16:13:09.741Z,3.57
2019-05-17T16:16:00.365Z,2.20
2019-05-17T16:18:49.511Z,3.07
2019-05-17T16:21:38.486Z,2.63
2019-05-17T16:24:33.814Z,3.30
2019-05-17T16:27:25.051Z,2.70
2019-05-17T16:30:14.503Z,3.23
2019-05-17T16:33:05.236Z,2.93
2019-05-17T16:35:55.298Z,3.40
2019-05-17T16:38:45.018Z,3.20
2019-05-17T16:41:36.189Z,3.27
2019-05-17T16:44:26.503Z,3.70
2019-05-17T16:47:16.758Z,2.80
2019-05-17T16:50:08.101Z,3.60
2019-05-17T16:53:05.618Z,3.33
2019-05-17T16:55:48.267Z,3.23
2019-05-17T16:58:37.328Z,3.20
2019-05-17T17:01:27.771Z,3.43
2019-05-17T17:04:26.667Z,2.53
2019-05-17T17:07:16.558Z,2.80
2019-05-17T17:10:06.072Z,3.33
2019-05-17T17:12:55.867Z,3.20
2019-05-17T17:15:45.843Z,3.40
2019-05-17T17:18:36.262Z,3.77
2019-05-17T17:21:24.940Z,2.90
2019-05-17T17:24:14.062Z,3.40
2019-05-17T17:27:04.764Z,3.40
2019-05-17T17:29:54.509Z,3.23
2019-05-17T17:32:44.735Z,3.33
2019-05-17T17:35:33.847Z,3.20
2019-05-17T17:38:24.435Z,2.93
2019-05-17T17:41:14.285Z,3.00
2019-05-17T17:44:06.487Z,3.10
2019-05-17T17:46:55.486Z,4.17
2019-05-17T17:49:45.098Z,3.30
2019-05-17T17:52:35.886Z,3.03
2019-05-17T17:55:24.926Z,3.23
2019-05-17T17:58:14.281Z,3.20
2019-05-17T18:01:04.903Z,3.53
2019-05-17T18:03:55.279Z,3.10
2019-05-17T18:06:47.165Z,3.30
2019-05-17T18:09:37.111Z,2.80
2019-05-17T18:12:26.934Z,3.43
2019-05-17T18:15:19.519Z,2.73
2019-05-17T18:18:09.618Z,2.47
2019-05-17T18:20:59.836Z,3.20
2019-05-17T18:23:50.437Z,3.37
2019-05-17T18:26:41.637Z,3.20
2019-05-17T18:29:30.838Z,3.03
2019-05-17T18:32:22.782Z,3.30
2019-05-17T18:35:21.621Z,3.60
2019-05-17T18:38:15.761Z,2.93
2019-05-17T18:41:06.333Z,3.27
2019-05-17T18:43:56.221Z,2.97
2019-05-17T18:46:46.055Z,3.20
2019-05-17T18:49:35.267Z,3.40
2019-05-17T18:52:24.774Z,3.10
2019-05-17T18:55:14.890Z,2.93
2019-05-17T18:58:03.926Z,3.03
2019-05-17T19:00:53.214Z,2.37
2019-05-17T19:03:43.438Z,2.70
2019-05-17T19:06:33.690Z,3.07
2019-05-17T19:09:23.542Z,3.30
2019-05-17T19:12:13.774Z,2.80
2019-05-17T19:15:03.034Z,3.13
2019-05-17T19:17:53.451Z,3.40
2019-05-17T19:20:42.874Z,3.10
2019-05-17T19:23:32.371Z,3.30
2019-05-17T19:26:22.210Z,2.87
2019-05-17T19:29:12.335Z,3.40
2019-05-17T19:32:02.779Z,3.60
2019-05-17T19:34:52.250Z,3.50
2019-05-17T19:37:41.958Z,3.10
2019-05-17T19:40:33.083Z,3.60
2019-05-17T19:43:23.487Z,2.90
2019-05-17T19:46:13.216Z,3.33
2019-05-17T19:49:03.119Z,3.07
2019-05-17T19:51:54.606Z,3.80
2019-05-17T19:54:45.069Z,3.47
2019-05-17T19:57:34.587Z,2.87
2019-05-17T20:00:33.019Z,3.63
2019-05-17T20:03:24.439Z,3.87
2019-05-17T20:06:14.969Z,3.20
2019-05-17T20:09:06.552Z,4.87
2019-05-17T20:11:56.754Z,2.90
2019-05-17T20:14:46.566Z,3.57
2019-05-17T20:17:36.171Z,3.67
2019-05-17T20:20:26.191Z,4.90
2019-05-17T20:23:16.876Z,3.70
2019-05-17T20:26:06.787Z,3.00
2019-05-17T20:28:57.725Z,3.87
2019-05-17T20:31:48.477Z,3.60
2019-05-17T20:34:38.438Z,2.77
2019-05-17T20:37:27.268Z,3.63
2019-05-17T20:40:18.186Z,3.90
2019-05-17T20:43:09.367Z,4.07
2019-05-17T20:45:58.795Z,3.53
2019-05-17T20:48:48.134Z,4.00
2019-05-17T20:51:37.566Z,3.17
2019-05-17T20:54:27.294Z,3.30
2019-05-17T20:57:17.087Z,3.77
2019-05-17T21:00:07.771Z,3.40
2019-05-17T21:02:58.562Z,3.40
2019-05-17T21:05:48.553Z,3.43
2019-05-17T21:08:45.939Z,3.70
2019-05-17T21:11:31.389Z,4.40
2019-05-17T21:14:21.240Z,4.03
2019-05-17T21:17:10.762Z,3.53
2019-05-17T21:19:59.762Z,4.30
2019-05-17T21:22:49.608Z,3.90
2019-05-17T21:25:39.283Z,3.30
2019-05-17T21:28:29.855Z,3.70
2019-05-17T21:31:19.130Z,3.60
2019-05-17T21:34:08.110Z,4.03
2019-05-17T21:36:57.873Z,3.90
2019-05-17T21:39:48.890Z,3.70
2019-05-17T21:42:38.609Z,3.90
2019-05-17T21:45:28.867Z,3.73
2019-05-17T21:48:18.229Z,4.07
2019-05-17T21:51:08.087Z,4.20
2019-05-17T21:53:56.976Z,4.20
2019-05-17T21:56:45.802Z,4.27
2019-05-17T21:59:35.103Z,3.77
2019-05-17T22:02:32.271Z,4.27
2019-05-17T22:05:23.287Z,4.10
2019-05-17T22:08:27.611Z,4.03
2019-05-17T22:11:17.967Z,3.90
2019-05-17T22:14:07.696Z,3.80
2019-05-17T22:16:56.738Z,4.20
2019-05-17T22:19:45.930Z,4.10
2019-05-17T22:22:35.346Z,3.67
2019-05-17T22:25:25.032Z,3.70
2019-05-17T22:28:15.066Z,4.03
2019-05-17T22:31:04.703Z,3.60
2019-05-17T22:33:54.605Z,4.70
2019-05-17T22:36:44.330Z,4.37
2019-05-17T22:39:38.061Z,4.07
2019-05-17T22:42:29.036Z,4.33
2019-05-17T22:45:18.030Z,4.03
2019-05-17T22:48:07.783Z,4.47
2019-05-17T22:50:57.076Z,3.40
2019-05-17T22:53:54.547Z,4.30
2019-05-17T22:56:43.929Z,4.30
2019-05-17T22:59:33.427Z,4.33
2019-05-17T23:02:33.510Z,4.10
2019-05-17T23:05:26.311Z,4.13
2019-05-17T23:08:23.128Z,4.17
2019-05-17T23:11:12.768Z,4.13
2019-05-17T23:14:02.969Z,4.40
2019-05-17T23:16:52.269Z,4.73
2019-05-17T23:19:42.553Z,4.00
2019-05-17T23:22:31.230Z,4.10
2019-05-17T23:25:21.694Z,4.03
2019-05-17T23:28:11.790Z,3.97
2019-05-17T23:31:00.980Z,4.20
2019-05-17T23:33:50.767Z,3.93
2019-05-17T23:36:41.342Z,4.50
2019-05-17T23:39:30.927Z,4.20
2019-05-17T23:42:21.638Z,4.23
2019-05-17T23:45:11.906Z,3.87
2019-05-17T23:48:01.289Z,4.87
2019-05-17T23:50:50.642Z,3.90
2019-05-17T23:53:40.382Z,4.90
2019-05-17T23:56:29.510Z,3.77
2019-05-17T23:59:18.700Z,4.60
